Long Itchington, United Kingdom
Current Conditions -  °F | °C
As of 1:20 AM on Wednesday 26 Nov 2014 (Local Time) from EGBE Reporting Station
Light Rain Light Rain  
Wind Chill: 41°   Ceiling: 1900
Heat Index: 45°   Visibility: 2.8mi
Dew Point: 45°   Wind: 7mph
Humidity: 100%   Direction: 40°NE
Pressure: 29.97"   Gusts: NA
Location:  52.28°N, 1.39°W
Report Text: EGBE 260120Z 04006KT 4500 -RA BR FEW005 BKN019 07/07 Q1015
Loading
Personal Weather Stations






























Interactive Weather Map New forecast layout! Learn more

10-Day Weather Forecast

Advertisements
Track Severe Weather on mobile